sensor_id;sensor_type;location;lat;lon;timestamp;noise_LAeq;noise_LA_min;noise_LA_max;noise_LA01;noise_LA95
74214;Laerm;62576;55.694;37.494;2024-02-26T00:02:26;61.50;51.48;69.87;;
74214;Laerm;62576;55.694;37.494;2024-02-26T00:04:56;58.44;49.01;66.69;;
74214;Laerm;62576;55.694;37.494;2024-02-26T00:07:26;63.13;50.58;85.17;;
74214;Laerm;62576;55.694;37.494;2024-02-26T00:09:56;60.56;49.80;76.48;;
74214;Laerm;62576;55.694;37.494;2024-02-26T00:12:28;58.72;49.68;66.65;;
74214;Laerm;62576;55.694;37.494;2024-02-26T00:14:58;57.78;48.94;75.29;;
74214;Laerm;62576;55.694;37.494;2024-02-26T00:17:27;58.62;50.09;73.53;;
74214;Laerm;62576;55.694;37.494;2024-02-26T00:19:57;57.89;49.21;69.95;;
74214;Laerm;62576;55.694;37.494;2024-02-26T00:22:29;58.49;50.57;66.99;;
74214;Laerm;62576;55.694;37.494;2024-02-26T00:24:59;57.28;49.88;65.89;;
74214;Laerm;62576;55.694;37.494;2024-02-26T00:27:30;57.82;49.56;69.24;;
74214;Laerm;62576;55.694;37.494;2024-02-26T00:30:00;58.33;49.75;68.70;;
74214;Laerm;62576;55.694;37.494;2024-02-26T00:32:30;58.84;28.86;66.85;;
74214;Laerm;62576;55.694;37.494;2024-02-26T00:35:00;59.57;50.81;67.00;;
74214;Laerm;62576;55.694;37.494;2024-02-26T00:37:30;59.46;43.51;79.44;;
74214;Laerm;62576;55.694;37.494;2024-02-26T00:40:00;57.45;49.84;65.73;;
74214;Laerm;62576;55.694;37.494;2024-02-26T00:42:31;57.46;41.12;72.70;;
74214;Laerm;62576;55.694;37.494;2024-02-26T00:45:01;59.94;50.12;67.51;;
74214;Laerm;62576;55.694;37.494;2024-02-26T00:47:31;59.60;50.39;68.40;;
74214;Laerm;62576;55.694;37.494;2024-02-26T00:50:01;58.00;49.73;64.68;;
74214;Laerm;62576;55.694;37.494;2024-02-26T00:52:29;58.56;49.91;66.24;;
74214;Laerm;62576;55.694;37.494;2024-02-26T00:54:59;56.97;49.15;66.62;;
74214;Laerm;62576;55.694;37.494;2024-02-26T00:57:30;57.93;50.99;66.76;;
74214;Laerm;62576;55.694;37.494;2024-02-26T01:00:01;59.12;51.22;71.48;;
74214;Laerm;62576;55.694;37.494;2024-02-26T01:02:32;59.06;48.54;73.66;;
74214;Laerm;62576;55.694;37.494;2024-02-26T01:05:02;58.83;50.99;67.56;;
74214;Laerm;62576;55.694;37.494;2024-02-26T01:07:32;57.74;50.07;66.19;;
74214;Laerm;62576;55.694;37.494;2024-02-26T01:10:05;58.07;47.89;66.92;;
74214;Laerm;62576;55.694;37.494;2024-02-26T01:12:36;58.83;47.81;70.93;;
74214;Laerm;62576;55.694;37.494;2024-02-26T01:15:07;60.32;49.93;74.04;;
74214;Laerm;62576;55.694;37.494;2024-02-26T01:17:37;59.88;50.90;67.55;;
74214;Laerm;62576;55.694;37.494;2024-02-26T01:20:08;59.47;50.02;68.02;;
74214;Laerm;62576;55.694;37.494;2024-02-26T01:22:38;58.09;49.57;65.68;;
74214;Laerm;62576;55.694;37.494;2024-02-26T01:25:09;60.48;50.14;73.32;;
74214;Laerm;62576;55.694;37.494;2024-02-26T01:27:41;57.41;49.43;70.00;;
74214;Laerm;62576;55.694;37.494;2024-02-26T01:30:13;58.15;49.54;70.42;;
74214;Laerm;62576;55.694;37.494;2024-02-26T01:32:44;59.92;48.91;70.15;;
74214;Laerm;62576;55.694;37.494;2024-02-26T01:35:14;58.10;49.27;69.32;;
74214;Laerm;62576;55.694;37.494;2024-02-26T01:37:44;60.46;50.72;71.76;;
74214;Laerm;62576;55.694;37.494;2024-02-26T01:40:15;59.23;50.01;68.80;;
74214;Laerm;62576;55.694;37.494;2024-02-26T01:42:52;59.85;50.23;69.31;;
74214;Laerm;62576;55.694;37.494;2024-02-26T01:45:22;60.79;51.25;69.57;;
74214;Laerm;62576;55.694;37.494;2024-02-26T01:47:54;61.78;50.04;74.38;;
74214;Laerm;62576;55.694;37.494;2024-02-26T01:50:25;59.93;51.95;66.51;;
74214;Laerm;62576;55.694;37.494;2024-02-26T01:52:54;61.34;50.98;70.43;;
74214;Laerm;62576;55.694;37.494;2024-02-26T01:55:26;62.60;51.11;70.53;;
74214;Laerm;62576;55.694;37.494;2024-02-26T01:57:57;57.96;49.47;65.27;;
74214;Laerm;62576;55.694;37.494;2024-02-26T02:00:28;63.03;52.33;74.32;;
74214;Laerm;62576;55.694;37.494;2024-02-26T02:02:58;60.28;51.10;67.73;;
74214;Laerm;62576;55.694;37.494;2024-02-26T02:05:28;59.76;50.58;72.82;;
74214;Laerm;62576;55.694;37.494;2024-02-26T02:07:59;61.10;50.28;69.27;;
74214;Laerm;62576;55.694;37.494;2024-02-26T02:10:29;57.97;51.01;65.84;;
74214;Laerm;62576;55.694;37.494;2024-02-26T02:13:01;61.82;50.46;77.65;;
74214;Laerm;62576;55.694;37.494;2024-02-26T02:15:31;62.02;50.40;70.78;;
74214;Laerm;62576;55.694;37.494;2024-02-26T02:17:58;63.75;52.56;70.45;;
74214;Laerm;62576;55.694;37.494;2024-02-26T02:20:33;61.43;51.57;69.42;;
74214;Laerm;62576;55.694;37.494;2024-02-26T02:23:04;61.58;52.37;68.44;;
74214;Laerm;62576;55.694;37.494;2024-02-26T02:25:31;61.11;51.55;71.93;;
74214;Laerm;62576;55.694;37.494;2024-02-26T02:28:01;62.91;51.71;71.56;;
74214;Laerm;62576;55.694;37.494;2024-02-26T02:30:31;59.87;51.37;70.67;;
74214;Laerm;62576;55.694;37.494;2024-02-26T02:33:04;61.73;50.73;69.01;;
74214;Laerm;62576;55.694;37.494;2024-02-26T02:35:36;61.72;50.92;70.18;;
74214;Laerm;62576;55.694;37.494;2024-02-26T02:38:06;64.78;53.06;71.56;;
74214;Laerm;62576;55.694;37.494;2024-02-26T02:40:39;62.70;53.66;70.87;;
74214;Laerm;62576;55.694;37.494;2024-02-26T02:43:12;61.95;52.89;68.60;;
74214;Laerm;62576;55.694;37.494;2024-02-26T02:45:42;62.06;53.52;70.33;;
74214;Laerm;62576;55.694;37.494;2024-02-26T02:48:12;62.08;52.81;69.03;;
74214;Laerm;62576;55.694;37.494;2024-02-26T02:50:45;63.00;55.57;70.11;;
74214;Laerm;62576;55.694;37.494;2024-02-26T02:53:12;64.11;57.04;73.29;;
74214;Laerm;62576;55.694;37.494;2024-02-26T02:55:44;62.69;52.29;70.13;;
74214;Laerm;62576;55.694;37.494;2024-02-26T02:58:15;66.37;54.92;74.16;;
74214;Laerm;62576;55.694;37.494;2024-02-26T03:00:45;64.80;50.02;76.69;;
74214;Laerm;62576;55.694;37.494;2024-02-26T03:03:15;63.50;53.18;71.04;;
74214;Laerm;62576;55.694;37.494;2024-02-26T03:05:47;65.37;54.81;72.00;;
74214;Laerm;62576;55.694;37.494;2024-02-26T03:08:17;66.13;46.24;72.69;;
74214;Laerm;62576;55.694;37.494;2024-02-26T03:10:47;63.39;53.17;71.94;;
74214;Laerm;62576;55.694;37.494;2024-02-26T03:13:18;61.97;52.31;67.57;;
74214;Laerm;62576;55.694;37.494;2024-02-26T03:15:48;64.77;56.23;76.42;;
74214;Laerm;62576;55.694;37.494;2024-02-26T03:18:18;65.28;57.52;72.38;;
74214;Laerm;62576;55.694;37.494;2024-02-26T03:20:50;64.69;54.80;74.09;;
74214;Laerm;62576;55.694;37.494;2024-02-26T03:23:20;62.03;53.69;68.08;;
74214;Laerm;62576;55.694;37.494;2024-02-26T03:25:50;62.09;53.26;70.84;;
74214;Laerm;62576;55.694;37.494;2024-02-26T03:28:20;65.12;53.41;75.06;;
74214;Laerm;62576;55.694;37.494;2024-02-26T03:30:51;66.27;56.94;71.62;;
74214;Laerm;62576;55.694;37.494;2024-02-26T03:33:21;64.49;55.95;70.63;;
74214;Laerm;62576;55.694;37.494;2024-02-26T03:35:52;63.98;49.72;71.82;;
74214;Laerm;62576;55.694;37.494;2024-02-26T03:38:22;64.52;49.03;79.22;;
74214;Laerm;62576;55.694;37.494;2024-02-26T03:40:52;64.59;54.84;73.32;;
74214;Laerm;62576;55.694;37.494;2024-02-26T03:43:22;65.23;56.72;70.46;;
74214;Laerm;62576;55.694;37.494;2024-02-26T03:45:52;64.07;54.09;72.02;;
74214;Laerm;62576;55.694;37.494;2024-02-26T03:48:22;65.12;54.09;72.02;;
74214;Laerm;62576;55.694;37.494;2024-02-26T03:50:54;64.73;54.03;77.33;;
74214;Laerm;62576;55.694;37.494;2024-02-26T03:53:21;65.95;55.72;72.53;;
74214;Laerm;62576;55.694;37.494;2024-02-26T03:55:51;64.83;55.14;70.97;;
74214;Laerm;62576;55.694;37.494;2024-02-26T03:58:21;66.32;58.06;71.25;;
74214;Laerm;62576;55.694;37.494;2024-02-26T04:00:52;67.66;58.49;73.16;;
74214;Laerm;62576;55.694;37.494;2024-02-26T04:03:22;67.88;60.71;72.28;;
74214;Laerm;62576;55.694;37.494;2024-02-26T04:05:54;67.35;59.76;72.19;;
74214;Laerm;62576;55.694;37.494;2024-02-26T04:08:23;67.08;56.63;72.97;;
74214;Laerm;62576;55.694;37.494;2024-02-26T04:10:54;66.86;59.77;72.50;;
74214;Laerm;62576;55.694;37.494;2024-02-26T04:13:24;67.75;58.67;72.96;;
74214;Laerm;62576;55.694;37.494;2024-02-26T04:15:54;67.82;59.73;74.20;;
74214;Laerm;62576;55.694;37.494;2024-02-26T04:18:24;67.33;58.85;71.80;;
74214;Laerm;62576;55.694;37.494;2024-02-26T04:20:56;67.63;56.28;71.72;;
74214;Laerm;62576;55.694;37.494;2024-02-26T04:23:26;67.64;58.85;74.48;;
74214;Laerm;62576;55.694;37.494;2024-02-26T04:25:56;67.58;59.84;72.92;;
74214;Laerm;62576;55.694;37.494;2024-02-26T04:28:26;66.89;57.53;75.99;;
74214;Laerm;62576;55.694;37.494;2024-02-26T04:30:57;67.15;57.99;72.84;;
74214;Laerm;62576;55.694;37.494;2024-02-26T04:33:27;68.13;57.23;73.36;;
74214;Laerm;62576;55.694;37.494;2024-02-26T04:35:59;68.89;58.94;74.43;;
74214;Laerm;62576;55.694;37.494;2024-02-26T04:38:29;68.64;58.52;72.99;;
74214;Laerm;62576;55.694;37.494;2024-02-26T04:40:59;68.66;60.27;73.27;;
74214;Laerm;62576;55.694;37.494;2024-02-26T04:43:29;67.98;58.12;75.44;;
74214;Laerm;62576;55.694;37.494;2024-02-26T04:45:58;67.80;56.61;72.36;;
74214;Laerm;62576;55.694;37.494;2024-02-26T04:48:28;68.27;60.22;72.70;;
74214;Laerm;62576;55.694;37.494;2024-02-26T04:51:00;68.73;55.69;72.76;;
74214;Laerm;62576;55.694;37.494;2024-02-26T04:53:30;69.29;60.42;74.57;;
74214;Laerm;62576;55.694;37.494;2024-02-26T04:56:00;69.06;56.62;72.96;;
74214;Laerm;62576;55.694;37.494;2024-02-26T04:58:32;68.56;60.11;72.53;;
74214;Laerm;62576;55.694;37.494;2024-02-26T05:01:03;68.42;59.59;77.64;;
74214;Laerm;62576;55.694;37.494;2024-02-26T05:03:33;68.89;59.44;74.11;;
74214;Laerm;62576;55.694;37.494;2024-02-26T05:06:05;68.99;57.99;73.14;;
74214;Laerm;62576;55.694;37.494;2024-02-26T05:08:36;68.90;59.91;73.21;;
74214;Laerm;62576;55.694;37.494;2024-02-26T05:11:07;69.52;62.23;74.89;;
74214;Laerm;62576;55.694;37.494;2024-02-26T05:13:37;69.21;61.12;74.06;;
74214;Laerm;62576;55.694;37.494;2024-02-26T05:16:07;68.51;59.89;72.65;;
74214;Laerm;62576;55.694;37.494;2024-02-26T05:18:37;68.98;60.26;73.72;;
74214;Laerm;62576;55.694;37.494;2024-02-26T05:21:09;68.87;60.65;72.64;;
74214;Laerm;62576;55.694;37.494;2024-02-26T05:23:40;69.02;58.19;74.33;;
74214;Laerm;62576;55.694;37.494;2024-02-26T05:26:18;69.70;59.90;75.65;;
74214;Laerm;62576;55.694;37.494;2024-02-26T05:28:49;68.50;58.91;73.61;;
74214;Laerm;62576;55.694;37.494;2024-02-26T05:31:19;68.52;59.33;73.21;;
74214;Laerm;62576;55.694;37.494;2024-02-26T05:33:49;69.87;57.51;86.03;;
74214;Laerm;62576;55.694;37.494;2024-02-26T05:36:21;69.45;62.71;76.78;;
74214;Laerm;62576;55.694;37.494;2024-02-26T05:38:51;68.83;56.88;74.23;;
74214;Laerm;62576;55.694;37.494;2024-02-26T05:41:22;69.09;59.78;73.80;;
74214;Laerm;62576;55.694;37.494;2024-02-26T05:43:54;69.22;59.13;79.83;;
74214;Laerm;62576;55.694;37.494;2024-02-26T05:46:24;68.86;60.37;73.67;;
74214;Laerm;62576;55.694;37.494;2024-02-26T05:48:55;68.69;59.74;75.17;;
74214;Laerm;62576;55.694;37.494;2024-02-26T05:51:27;69.18;59.13;73.56;;
74214;Laerm;62576;55.694;37.494;2024-02-26T05:53:57;69.10;57.62;81.63;;
74214;Laerm;62576;55.694;37.494;2024-02-26T05:56:24;68.94;59.11;75.03;;
74214;Laerm;62576;55.694;37.494;2024-02-26T05:58:55;69.54;61.97;74.78;;
74214;Laerm;62576;55.694;37.494;2024-02-26T06:01:25;68.83;60.71;73.54;;
74214;Laerm;62576;55.694;37.494;2024-02-26T06:03:57;69.50;57.40;87.24;;
74214;Laerm;62576;55.694;37.494;2024-02-26T06:06:28;68.75;59.74;73.47;;
74214;Laerm;62576;55.694;37.494;2024-02-26T06:08:58;68.93;61.33;78.16;;
74214;Laerm;62576;55.694;37.494;2024-02-26T06:11:29;72.28;61.83;88.25;;
74214;Laerm;62576;55.694;37.494;2024-02-26T06:13:59;68.58;56.42;73.24;;
74214;Laerm;62576;55.694;37.494;2024-02-26T06:16:29;68.84;59.42;73.31;;
74214;Laerm;62576;55.694;37.494;2024-02-26T06:19:00;68.13;60.18;82.77;;
74214;Laerm;62576;55.694;37.494;2024-02-26T06:21:32;67.97;59.18;76.71;;
74214;Laerm;62576;55.694;37.494;2024-02-26T06:24:02;69.54;60.60;85.68;;
74214;Laerm;62576;55.694;37.494;2024-02-26T06:26:32;68.51;58.13;73.59;;
74214;Laerm;62576;55.694;37.494;2024-02-26T06:29:02;68.51;57.61;74.10;;
74214;Laerm;62576;55.694;37.494;2024-02-26T06:31:32;69.04;60.18;73.24;;
74214;Laerm;62576;55.694;37.494;2024-02-26T06:34:03;67.66;59.33;72.35;;
74214;Laerm;62576;55.694;37.494;2024-02-26T06:36:38;68.04;57.91;76.06;;
74214;Laerm;62576;55.694;37.494;2024-02-26T06:39:08;69.06;60.67;75.52;;
74214;Laerm;62576;55.694;37.494;2024-02-26T06:41:39;68.84;59.40;73.15;;
74214;Laerm;62576;55.694;37.494;2024-02-26T06:44:09;69.09;57.70;73.17;;
74214;Laerm;62576;55.694;37.494;2024-02-26T06:46:39;68.96;58.93;72.95;;
74214;Laerm;62576;55.694;37.494;2024-02-26T06:49:12;68.66;59.46;72.91;;
74214;Laerm;62576;55.694;37.494;2024-02-26T06:51:43;68.56;58.57;73.06;;
74214;Laerm;62576;55.694;37.494;2024-02-26T06:54:13;68.59;58.47;80.39;;
74214;Laerm;62576;55.694;37.494;2024-02-26T06:56:46;68.58;60.00;73.81;;
74214;Laerm;62576;55.694;37.494;2024-02-26T06:59:16;69.30;59.09;72.93;;
74214;Laerm;62576;55.694;37.494;2024-02-26T07:01:48;68.68;57.99;82.78;;
74214;Laerm;62576;55.694;37.494;2024-02-26T07:04:18;68.18;57.89;77.33;;
74214;Laerm;62576;55.694;37.494;2024-02-26T07:06:50;67.58;47.39;73.28;;
74214;Laerm;62576;55.694;37.494;2024-02-26T07:09:20;68.48;59.87;72.79;;
74214;Laerm;62576;55.694;37.494;2024-02-26T07:11:50;68.43;59.09;72.91;;
74214;Laerm;62576;55.694;37.494;2024-02-26T07:14:20;68.64;56.95;72.70;;
74214;Laerm;62576;55.694;37.494;2024-02-26T07:16:51;68.25;58.22;77.07;;
74214;Laerm;62576;55.694;37.494;2024-02-26T07:19:21;68.26;58.51;73.75;;
74214;Laerm;62576;55.694;37.494;2024-02-26T07:21:53;67.87;54.00;73.60;;
74214;Laerm;62576;55.694;37.494;2024-02-26T07:24:24;68.23;55.43;72.85;;
74214;Laerm;62576;55.694;37.494;2024-02-26T07:26:54;68.15;59.71;74.88;;
74214;Laerm;62576;55.694;37.494;2024-02-26T07:29:24;68.66;59.01;72.57;;
74214;Laerm;62576;55.694;37.494;2024-02-26T07:31:55;68.57;57.78;79.86;;
74214;Laerm;62576;55.694;37.494;2024-02-26T07:34:25;68.30;59.12;73.04;;
74214;Laerm;62576;55.694;37.494;2024-02-26T07:36:59;68.47;56.32;73.91;;
74214;Laerm;62576;55.694;37.494;2024-02-26T07:39:29;68.14;57.24;72.70;;
74214;Laerm;62576;55.694;37.494;2024-02-26T07:41:59;67.88;57.54;78.05;;
74214;Laerm;62576;55.694;37.494;2024-02-26T07:44:29;68.26;58.23;73.42;;
74214;Laerm;62576;55.694;37.494;2024-02-26T07:46:59;67.97;55.41;72.82;;
74214;Laerm;62576;55.694;37.494;2024-02-26T07:49:30;69.86;58.94;84.56;;
74214;Laerm;62576;55.694;37.494;2024-02-26T07:52:01;67.62;56.84;75.26;;
74214;Laerm;62576;55.694;37.494;2024-02-26T07:54:31;67.19;57.67;75.13;;
74214;Laerm;62576;55.694;37.494;2024-02-26T07:57:02;67.83;57.49;73.87;;
74214;Laerm;62576;55.694;37.494;2024-02-26T07:59:33;67.54;56.80;77.43;;
74214;Laerm;62576;55.694;37.494;2024-02-26T08:02:04;67.96;57.86;80.62;;
74214;Laerm;62576;55.694;37.494;2024-02-26T08:04:35;68.66;59.61;75.13;;
74214;Laerm;62576;55.694;37.494;2024-02-26T08:07:06;68.05;61.09;74.81;;
74214;Laerm;62576;55.694;37.494;2024-02-26T08:09:36;68.59;59.06;73.57;;
74214;Laerm;62576;55.694;37.494;2024-02-26T08:12:07;67.98;60.60;78.04;;
74214;Laerm;62576;55.694;37.494;2024-02-26T08:14:37;67.90;60.89;73.49;;
74214;Laerm;62576;55.694;37.494;2024-02-26T08:17:07;67.82;61.96;73.19;;
74214;Laerm;62576;55.694;37.494;2024-02-26T08:19:38;67.05;60.20;78.66;;
74214;Laerm;62576;55.694;37.494;2024-02-26T08:22:10;67.86;59.30;81.88;;
74214;Laerm;62576;55.694;37.494;2024-02-26T08:24:45;68.32;60.76;79.61;;
74214;Laerm;62576;55.694;37.494;2024-02-26T08:27:12;67.83;57.38;77.71;;
74214;Laerm;62576;55.694;37.494;2024-02-26T08:29:42;67.48;59.57;79.11;;
74214;Laerm;62576;55.694;37.494;2024-02-26T08:32:12;67.81;59.19;72.34;;
74214;Laerm;62576;55.694;37.494;2024-02-26T08:34:43;68.16;60.58;77.04;;
74214;Laerm;62576;55.694;37.494;2024-02-26T08:37:14;68.27;61.02;75.66;;
74214;Laerm;62576;55.694;37.494;2024-02-26T08:39:44;68.05;59.58;72.95;;
74214;Laerm;62576;55.694;37.494;2024-02-26T08:42:14;67.67;59.78;72.59;;
74214;Laerm;62576;55.694;37.494;2024-02-26T08:44:45;67.82;57.99;79.59;;
74214;Laerm;62576;55.694;37.494;2024-02-26T08:47:15;67.84;60.59;75.37;;
74214;Laerm;62576;55.694;37.494;2024-02-26T08:49:46;68.55;61.54;78.51;;
74214;Laerm;62576;55.694;37.494;2024-02-26T08:52:18;68.85;63.25;78.97;;
74214;Laerm;62576;55.694;37.494;2024-02-26T08:54:48;68.33;59.64;77.71;;
74214;Laerm;62576;55.694;37.494;2024-02-26T08:57:18;68.32;59.42;80.78;;
74214;Laerm;62576;55.694;37.494;2024-02-26T08:59:48;67.91;57.81;73.08;;
74214;Laerm;62576;55.694;37.494;2024-02-26T09:02:18;67.84;58.83;75.90;;
74214;Laerm;62576;55.694;37.494;2024-02-26T09:04:49;67.34;59.22;80.74;;
74214;Laerm;62576;55.694;37.494;2024-02-26T09:07:23;68.47;60.35;76.87;;
74214;Laerm;62576;55.694;37.494;2024-02-26T09:09:54;67.63;56.38;79.73;;
74214;Laerm;62576;55.694;37.494;2024-02-26T09:12:24;67.26;57.72;74.61;;
74214;Laerm;62576;55.694;37.494;2024-02-26T09:14:54;66.90;57.12;77.17;;
74214;Laerm;62576;55.694;37.494;2024-02-26T09:17:23;67.18;61.60;75.52;;
74214;Laerm;62576;55.694;37.494;2024-02-26T09:19:53;67.51;63.45;71.85;;
74214;Laerm;62576;55.694;37.494;2024-02-26T09:22:24;65.91;61.53;73.25;;
74214;Laerm;62576;55.694;37.494;2024-02-26T09:24:54;66.67;59.60;72.53;;
74214;Laerm;62576;55.694;37.494;2024-02-26T09:27:28;66.26;59.37;72.69;;
74214;Laerm;62576;55.694;37.494;2024-02-26T09:29:59;66.27;60.00;71.50;;
74214;Laerm;62576;55.694;37.494;2024-02-26T09:32:32;66.69;62.60;71.92;;
74214;Laerm;62576;55.694;37.494;2024-02-26T09:35:02;67.16;61.74;77.53;;
74214;Laerm;62576;55.694;37.494;2024-02-26T09:37:34;65.75;61.69;71.42;;
74214;Laerm;62576;55.694;37.494;2024-02-26T09:40:06;65.52;61.40;73.42;;
74214;Laerm;62576;55.694;37.494;2024-02-26T09:42:43;66.04;57.05;75.16;;
74214;Laerm;62576;55.694;37.494;2024-02-26T09:45:18;64.46;57.33;71.21;;
74214;Laerm;62576;55.694;37.494;2024-02-26T09:47:48;64.38;59.83;70.59;;
74214;Laerm;62576;55.694;37.494;2024-02-26T09:50:20;64.89;61.16;74.26;;
74214;Laerm;62576;55.694;37.494;2024-02-26T09:52:51;64.84;61.16;68.89;;
74214;Laerm;62576;55.694;37.494;2024-02-26T09:55:21;65.09;56.79;77.45;;
74214;Laerm;62576;55.694;37.494;2024-02-26T09:57:54;64.70;56.76;69.54;;
74214;Laerm;62576;55.694;37.494;2024-02-26T10:00:30;65.25;58.10;71.00;;
74214;Laerm;62576;55.694;37.494;2024-02-26T10:03:17;65.02;58.12;70.23;;
74214;Laerm;62576;55.694;37.494;2024-02-26T10:05:51;64.12;57.64;68.59;;
74214;Laerm;62576;55.694;37.494;2024-02-26T10:08:26;63.33;57.32;68.34;;
74214;Laerm;62576;55.694;37.494;2024-02-26T10:10:56;63.34;57.57;69.01;;
74214;Laerm;62576;55.694;37.494;2024-02-26T10:13:26;63.81;55.87;74.86;;
74214;Laerm;62576;55.694;37.494;2024-02-26T10:15:57;64.05;60.12;69.50;;
74214;Laerm;62576;55.694;37.494;2024-02-26T10:18:27;63.70;59.86;71.40;;
74214;Laerm;62576;55.694;37.494;2024-02-26T10:21:00;64.19;59.79;75.92;;
74214;Laerm;62576;55.694;37.494;2024-02-26T10:23:35;63.82;59.93;72.04;;
74214;Laerm;62576;55.694;37.494;2024-02-26T10:26:05;64.82;58.99;76.21;;
74214;Laerm;62576;55.694;37.494;2024-02-26T10:28:37;64.01;58.92;70.34;;
74214;Laerm;62576;55.694;37.494;2024-02-26T10:31:07;63.68;59.12;76.75;;
74214;Laerm;62576;55.694;37.494;2024-02-26T10:33:38;64.70;60.74;69.65;;
74214;Laerm;62576;55.694;37.494;2024-02-26T10:36:09;64.56;58.84;68.50;;
74214;Laerm;62576;55.694;37.494;2024-02-26T10:38:41;64.58;-7.70;96.20;;
74214;Laerm;62576;55.694;37.494;2024-02-26T10:41:13;60.65;-4.43;70.97;;
74214;Laerm;62576;55.694;37.494;2024-02-26T10:44:00;62.28;-14.63;68.12;;
74214;Laerm;62576;55.694;37.494;2024-02-26T10:46:30;63.64;-12.36;96.22;;
74214;Laerm;62576;55.694;37.494;2024-02-26T10:49:00;63.26;-2.54;67.47;;
74214;Laerm;62576;55.694;37.494;2024-02-26T10:51:31;64.08;58.99;68.65;;
74214;Laerm;62576;55.694;37.494;2024-02-26T10:54:07;65.31;60.18;71.91;;
74214;Laerm;62576;55.694;37.494;2024-02-26T10:56:41;66.13;58.91;73.05;;
74214;Laerm;62576;55.694;37.494;2024-02-26T10:59:12;66.02;59.69;74.94;;
74214;Laerm;62576;55.694;37.494;2024-02-26T11:01:43;65.95;60.72;73.85;;
74214;Laerm;62576;55.694;37.494;2024-02-26T11:04:16;64.21;56.70;69.53;;
74214;Laerm;62576;55.694;37.494;2024-02-26T11:06:47;64.36;58.94;69.79;;
74214;Laerm;62576;55.694;37.494;2024-02-26T11:09:21;65.37;59.90;73.17;;
74214;Laerm;62576;55.694;37.494;2024-02-26T11:12:08;65.15;59.81;71.81;;
74214;Laerm;62576;55.694;37.494;2024-02-26T11:14:43;64.83;59.75;72.76;;
74214;Laerm;62576;55.694;37.494;2024-02-26T11:17:15;65.14;57.91;70.76;;
74214;Laerm;62576;55.694;37.494;2024-02-26T11:19:46;64.70;58.65;75.31;;
74214;Laerm;62576;55.694;37.494;2024-02-26T11:22:18;63.83;58.68;68.20;;
74214;Laerm;62576;55.694;37.494;2024-02-26T11:24:52;64.92;61.09;68.21;;
74214;Laerm;62576;55.694;37.494;2024-02-26T11:27:28;64.64;61.23;69.36;;
74214;Laerm;62576;55.694;37.494;2024-02-26T11:30:03;67.17;61.67;81.96;;
74214;Laerm;62576;55.694;37.494;2024-02-26T11:32:34;65.74;62.02;68.55;;
74214;Laerm;62576;55.694;37.494;2024-02-26T11:35:05;65.50;60.31;71.43;;
74214;Laerm;62576;55.694;37.494;2024-02-26T11:37:39;65.60;60.69;68.78;;
74214;Laerm;62576;55.694;37.494;2024-02-26T11:40:12;65.66;60.93;68.59;;
74214;Laerm;62576;55.694;37.494;2024-02-26T11:42:48;65.28;61.99;71.63;;
74214;Laerm;62576;55.694;37.494;2024-02-26T11:45:51;64.87;60.86;75.82;;
74214;Laerm;62576;55.694;37.494;2024-02-26T11:48:24;65.42;-32.67;96.22;;
74214;Laerm;62576;55.694;37.494;2024-02-26T11:50:55;72.17;-331.32;96.22;;
74214;Laerm;62576;55.694;37.494;2024-02-26T11:53:25;73.19;-326.54;99.25;;
74214;Laerm;62576;55.694;37.494;2024-02-26T11:56:23;69.73;-329.56;96.22;;
74214;Laerm;62576;55.694;37.494;2024-02-26T11:58:58;5.00;5.00;5.00;;
74214;Laerm;62576;55.694;37.494;2024-02-26T12:01:45;5.00;5.00;5.00;;
74214;Laerm;62576;55.694;37.494;2024-02-26T12:04:18;5.00;5.00;5.00;;
74214;Laerm;62576;55.694;37.494;2024-02-26T12:06:54;5.00;5.00;5.00;;
74214;Laerm;62576;55.694;37.494;2024-02-26T12:09:35;5.00;5.00;5.00;;
74214;Laerm;62576;55.694;37.494;2024-02-26T12:12:08;5.00;5.00;5.00;;
74214;Laerm;62576;55.694;37.494;2024-02-26T12:14:39;5.00;5.00;5.00;;
74214;Laerm;62576;55.694;37.494;2024-02-26T12:17:19;5.00;5.00;5.00;;
74214;Laerm;62576;55.694;37.494;2024-02-26T12:19:50;5.00;5.00;5.00;;
74214;Laerm;62576;55.694;37.494;2024-02-26T12:22:21;73.32;-334.33;96.23;;
74214;Laerm;62576;55.694;37.494;2024-02-26T12:24:58;62.68;-324.78;96.68;;
74214;Laerm;62576;55.694;37.494;2024-02-26T12:27:31;70.95;-325.88;96.23;;
74214;Laerm;62576;55.694;37.494;2024-02-26T12:30:01;66.51;-14.27;95.82;;
74214;Laerm;62576;55.694;37.494;2024-02-26T12:32:32;64.96;60.88;72.60;;
74214;Laerm;62576;55.694;37.494;2024-02-26T12:35:04;67.09;61.41;78.81;;
74214;Laerm;62576;55.694;37.494;2024-02-26T12:37:35;67.87;60.73;72.85;;
74214;Laerm;62576;55.694;37.494;2024-02-26T12:40:09;67.83;61.09;72.62;;
74214;Laerm;62576;55.694;37.494;2024-02-26T12:45:31;67.86;62.66;73.28;;
74214;Laerm;62576;55.694;37.494;2024-02-26T12:48:05;68.31;61.71;74.27;;
74214;Laerm;62576;55.694;37.494;2024-02-26T12:50:35;67.59;58.20;74.13;;
74214;Laerm;62576;55.694;37.494;2024-02-26T12:53:02;68.06;57.60;79.69;;
74214;Laerm;62576;55.694;37.494;2024-02-26T12:55:33;67.89;60.25;72.17;;
74214;Laerm;62576;55.694;37.494;2024-02-26T12:58:06;67.46;58.57;76.16;;
74214;Laerm;62576;55.694;37.494;2024-02-26T13:00:37;67.62;59.87;77.79;;
74214;Laerm;62576;55.694;37.494;2024-02-26T13:03:07;68.09;58.50;75.53;;
74214;Laerm;62576;55.694;37.494;2024-02-26T13:05:38;67.83;60.59;72.75;;
74214;Laerm;62576;55.694;37.494;2024-02-26T13:08:08;67.77;60.00;75.16;;
74214;Laerm;62576;55.694;37.494;2024-02-26T13:10:38;67.65;59.61;72.73;;
74214;Laerm;62576;55.694;37.494;2024-02-26T13:13:10;70.64;59.45;89.23;;
74214;Laerm;62576;55.694;37.494;2024-02-26T13:15:40;67.82;58.05;79.74;;
74214;Laerm;62576;55.694;37.494;2024-02-26T13:18:14;67.90;57.35;77.68;;
74214;Laerm;62576;55.694;37.494;2024-02-26T13:20:47;67.96;59.07;73.25;;
74214;Laerm;62576;55.694;37.494;2024-02-26T13:23:17;67.74;60.46;72.12;;
74214;Laerm;62576;55.694;37.494;2024-02-26T13:26:05;68.60;61.12;73.08;;
74214;Laerm;62576;55.694;37.494;2024-02-26T13:28:36;68.60;60.94;72.64;;
74214;Laerm;62576;55.694;37.494;2024-02-26T13:31:07;67.67;59.14;71.73;;
74214;Laerm;62576;55.694;37.494;2024-02-26T13:33:38;66.96;60.84;72.01;;
74214;Laerm;62576;55.694;37.494;2024-02-26T13:36:08;67.23;59.17;72.70;;
74214;Laerm;62576;55.694;37.494;2024-02-26T13:38:51;68.19;60.08;74.14;;
74214;Laerm;62576;55.694;37.494;2024-02-26T13:41:21;68.73;61.90;73.36;;
74214;Laerm;62576;55.694;37.494;2024-02-26T13:43:53;69.04;59.77;77.95;;
74214;Laerm;62576;55.694;37.494;2024-02-26T13:46:23;68.49;53.66;72.94;;
74214;Laerm;62576;55.694;37.494;2024-02-26T13:48:53;68.01;36.93;72.82;;
74214;Laerm;62576;55.694;37.494;2024-02-26T13:51:23;67.56;37.23;71.66;;
74214;Laerm;62576;55.694;37.494;2024-02-26T13:54:19;67.10;56.95;71.79;;
74214;Laerm;62576;55.694;37.494;2024-02-26T13:56:49;67.32;40.09;73.36;;
74214;Laerm;62576;55.694;37.494;2024-02-26T13:59:22;67.80;41.17;72.54;;